Terminal Aerodrome Forecast
Issued by NWS Lake Charles, LA

Home | Current Version | Previous Version | Text Only | Print | Product List | Glossary On
Versions: 1 2 3 4 5 6 7 8 9 10 11 12 13 14 15 16 17 18 19 20 21 22 23 24
000
FTUS44 KLCH 202334
TAFLFT
TAF
KLFT 202334Z 2100/2124 18004KT P6SM BKN250
     FM210300 18004KT 4SM BR SCT007
      TEMPO 2104/2106 1SM -TSRA OVC007CB
     FM210600 19004KT 2SM -TSRA OVC004CB
     FM211100 VRB04KT 1/2SM FG OVC003
     FM211600 22010KT P6SM BKN015=

USA.gov is the U.S. government's official web portal to all federal, state and local government web resources and services.